createdAt,value
2022-07-26T00:01:49.430Z,23.45
2022-07-26T00:04:16.959Z,23.67
2022-07-26T00:06:44.461Z,23.21
2022-07-26T00:09:12.034Z,23.37
2022-07-26T00:11:40.983Z,23.25
2022-07-26T00:14:09.757Z,23.46
2022-07-26T00:16:38.458Z,23.30
2022-07-26T00:19:07.739Z,23.46
2022-07-26T00:21:36.893Z,23.32
2022-07-26T00:24:09.460Z,23.41
2022-07-26T00:26:37.256Z,23.25
2022-07-26T00:29:06.946Z,23.31
2022-07-26T00:31:34.639Z,23.06
2022-07-26T00:34:02.124Z,23.09
2022-07-26T00:36:29.763Z,23.19
2022-07-26T00:38:57.255Z,22.96
2022-07-26T00:41:24.838Z,23.09
2022-07-26T00:43:57.711Z,22.98
2022-07-26T00:46:26.940Z,23.08
2022-07-26T00:48:54.611Z,23.05
2022-07-26T00:51:22.823Z,22.95
2022-07-26T00:53:50.532Z,22.96
2022-07-26T00:56:18.512Z,22.77
2022-07-26T00:58:45.955Z,22.89
2022-07-26T01:01:13.571Z,22.98
2022-07-26T01:03:42.823Z,23.24
2022-07-26T01:06:10.489Z,23.17
2022-07-26T01:08:37.967Z,22.82
2022-07-26T01:11:05.610Z,22.90
2022-07-26T01:13:35.545Z,22.96
2022-07-26T01:16:03.456Z,22.92
2022-07-26T01:18:31.008Z,22.72
2022-07-26T01:21:13.036Z,22.80
2022-07-26T01:23:42.947Z,22.85
2022-07-26T01:26:11.003Z,22.73
2022-07-26T01:28:39.562Z,22.68
2022-07-26T01:31:07.774Z,22.62
2022-07-26T01:33:36.002Z,22.55
2022-07-26T01:36:03.620Z,22.36
2022-07-26T01:38:31.081Z,22.47
2022-07-26T01:40:59.983Z,22.58
2022-07-26T01:43:27.946Z,22.47
2022-07-26T01:45:55.566Z,22.24
2022-07-26T01:48:23.255Z,21.84
2022-07-26T01:50:50.709Z,21.96
2022-07-26T01:53:18.168Z,21.95
2022-07-26T01:55:45.652Z,22.20
2022-07-26T01:58:14.604Z,22.11
2022-07-26T02:00:42.056Z,22.19
2022-07-26T02:03:09.740Z,22.20
2022-07-26T02:05:37.287Z,22.30
2022-07-26T02:08:05.012Z,22.17
2022-07-26T02:10:46.911Z,22.06
2022-07-26T02:13:16.407Z,22.15
2022-07-26T02:15:43.916Z,22.39
2022-07-26T02:18:11.389Z,22.27
2022-07-26T02:20:38.806Z,21.98
2022-07-26T02:23:06.513Z,21.98
2022-07-26T02:25:34.013Z,21.92
2022-07-26T02:28:01.879Z,21.92
2022-07-26T02:30:30.620Z,22.07
2022-07-26T02:32:58.056Z,21.83
2022-07-26T02:35:25.678Z,21.89
2022-07-26T02:37:53.071Z,22.09
2022-07-26T02:40:20.715Z,22.08
2022-07-26T02:42:48.184Z,21.83
2022-07-26T02:45:15.715Z,21.75
2022-07-26T02:47:49.228Z,21.58
2022-07-26T02:50:17.968Z,21.58
2022-07-26T02:52:46.939Z,21.97
2022-07-26T02:55:15.010Z,21.67
2022-07-26T02:57:46.659Z,21.52
2022-07-26T03:00:16.079Z,21.65
2022-07-26T03:02:43.780Z,21.92
2022-07-26T03:05:12.671Z,22.02
2022-07-26T03:07:40.079Z,22.11
2022-07-26T03:10:08.730Z,21.87
2022-07-26T03:12:36.358Z,22.05
2022-07-26T03:15:04.064Z,21.71
2022-07-26T03:17:32.121Z,21.68
2022-07-26T03:20:00.031Z,21.61
2022-07-26T03:22:28.771Z,21.29
2022-07-26T03:24:56.213Z,21.13
2022-07-26T03:27:23.627Z,21.01
2022-07-26T03:29:51.075Z,21.11
2022-07-26T03:32:18.549Z,21.13
2022-07-26T03:34:45.971Z,21.08
2022-07-26T03:37:13.442Z,21.25
2022-07-26T03:39:42.185Z,21.57
2022-07-26T03:42:09.636Z,21.55
2022-07-26T03:44:37.107Z,21.24
2022-07-26T03:47:04.602Z,21.23
2022-07-26T03:49:32.190Z,21.52
2022-07-26T03:51:59.618Z,21.43
2022-07-26T03:54:27.157Z,21.66
2022-07-26T03:56:54.938Z,21.71
2022-07-26T03:59:24.076Z,21.80
2022-07-26T04:01:51.646Z,21.52
2022-07-26T04:04:19.607Z,21.41
2022-07-26T04:06:52.910Z,21.41
2022-07-26T04:09:20.461Z,21.40
2022-07-26T04:11:48.577Z,21.57
2022-07-26T04:14:17.368Z,21.52
2022-07-26T04:16:44.827Z,21.51
2022-07-26T04:19:12.388Z,21.68
2022-07-26T04:21:39.803Z,21.71
2022-07-26T04:24:08.274Z,21.80
2022-07-26T04:26:35.980Z,21.63
2022-07-26T04:29:03.436Z,21.83
2022-07-26T04:31:34.942Z,21.92
2022-07-26T04:34:04.067Z,21.90
2022-07-26T04:36:31.532Z,21.68
2022-07-26T04:38:58.952Z,21.65
2022-07-26T04:41:26.365Z,21.60
2022-07-26T04:43:53.767Z,21.72
2022-07-26T04:46:21.262Z,21.85
2022-07-26T04:48:50.157Z,21.86
2022-07-26T04:51:17.669Z,21.60
2022-07-26T04:53:45.111Z,21.68
2022-07-26T04:56:12.856Z,21.80
2022-07-26T04:58:40.319Z,21.77
2022-07-26T05:01:10.327Z,22.03
2022-07-26T05:03:38.353Z,21.97
2022-07-26T05:06:07.816Z,22.15
2022-07-26T05:08:35.278Z,22.35
2022-07-26T05:11:04.053Z,22.48
2022-07-26T05:13:31.473Z,22.37
2022-07-26T05:15:59.251Z,22.07
2022-07-26T05:18:26.721Z,22.02
2022-07-26T05:20:54.207Z,21.88
2022-07-26T05:23:22.978Z,22.01
2022-07-26T05:25:50.759Z,22.20
2022-07-26T05:28:18.187Z,22.58
2022-07-26T05:30:46.014Z,22.61
2022-07-26T05:33:16.713Z,22.41
2022-07-26T05:35:44.376Z,22.22
2022-07-26T05:38:12.000Z,22.10
2022-07-26T05:40:40.737Z,22.39
2022-07-26T05:43:23.175Z,22.61
2022-07-26T05:45:51.285Z,22.64
2022-07-26T05:48:20.632Z,22.59
2022-07-26T05:50:48.107Z,22.81
2022-07-26T05:53:17.491Z,23.06
2022-07-26T05:55:46.323Z,22.93
2022-07-26T05:58:13.965Z,23.17
2022-07-26T06:00:45.464Z,23.29
2022-07-26T06:03:24.530Z,23.45
2022-07-26T06:05:53.713Z,23.13
2022-07-26T06:08:22.069Z,23.04
2022-07-26T06:10:51.390Z,23.26
2022-07-26T06:13:19.122Z,23.44
2022-07-26T06:15:47.319Z,23.25
2022-07-26T06:21:07.885Z,23.30
2022-07-26T06:23:35.408Z,23.06
2022-07-26T06:26:05.141Z,23.44
2022-07-26T06:28:32.833Z,23.31
2022-07-26T06:31:00.271Z,23.35
2022-07-26T06:33:27.764Z,23.45
2022-07-26T06:35:55.194Z,23.70
2022-07-26T06:38:22.671Z,23.63
2022-07-26T06:40:50.090Z,23.68
2022-07-26T06:43:18.846Z,23.95
2022-07-26T06:45:46.396Z,24.10
2022-07-26T06:48:14.269Z,23.78
2022-07-26T06:50:42.225Z,23.84
2022-07-26T06:53:09.622Z,23.95
2022-07-26T06:55:37.030Z,24.11
2022-07-26T06:58:04.492Z,24.16
2022-07-26T07:00:33.506Z,24.61
2022-07-26T07:03:01.114Z,24.97
2022-07-26T07:05:31.031Z,24.82
2022-07-26T07:07:58.801Z,24.81
2022-07-26T07:10:26.263Z,24.91
2022-07-26T07:12:53.689Z,24.57
2022-07-26T07:15:21.350Z,24.53
2022-07-26T07:17:51.727Z,24.98
2022-07-26T07:20:19.178Z,24.98
2022-07-26T07:22:47.032Z,25.33
2022-07-26T07:25:14.898Z,25.46
2022-07-26T07:27:42.700Z,25.66
2022-07-26T07:30:12.129Z,25.83
2022-07-26T07:32:39.868Z,25.32
2022-07-26T07:35:12.675Z,26.08
2022-07-26T07:37:53.085Z,25.74
2022-07-26T07:40:21.797Z,25.21
2022-07-26T07:42:50.141Z,25.69
2022-07-26T07:45:17.627Z,25.71
2022-07-26T07:47:45.062Z,25.54
2022-07-26T07:50:13.875Z,25.44
2022-07-26T07:52:41.337Z,25.78
2022-07-26T07:55:41.388Z,25.68
2022-07-26T07:57:57.480Z,25.27
2022-07-26T08:00:27.155Z,24.97
2022-07-26T08:02:55.063Z,25.43
2022-07-26T08:05:23.783Z,25.62
2022-07-26T08:07:52.464Z,25.38
2022-07-26T08:10:20.145Z,25.07
2022-07-26T08:12:47.757Z,25.33
2022-07-26T08:15:21.204Z,25.34
2022-07-26T08:17:51.325Z,25.12
2022-07-26T08:20:25.020Z,24.86
2022-07-26T08:22:52.845Z,25.25
2022-07-26T08:25:20.481Z,25.48
2022-07-26T08:28:03.281Z,25.20
2022-07-26T08:30:31.387Z,25.45
2022-07-26T08:32:58.941Z,25.31
2022-07-26T08:35:29.440Z,25.32
2022-07-26T08:38:00.473Z,24.90
2022-07-26T08:40:27.914Z,24.31
2022-07-26T08:42:56.783Z,23.96
2022-07-26T08:45:24.842Z,23.87
2022-07-26T08:48:16.098Z,23.99
2022-07-26T08:50:42.260Z,23.99
2022-07-26T08:53:12.857Z,24.16
2022-07-26T08:56:05.483Z,24.83
2022-07-26T08:58:27.872Z,24.72
2022-07-26T09:01:05.642Z,25.13
2022-07-26T09:03:33.345Z,24.89
2022-07-26T09:06:17.271Z,24.84
2022-07-26T09:08:46.281Z,25.03
2022-07-26T09:11:31.396Z,24.65
2022-07-26T09:14:00.778Z,24.93
2022-07-26T09:16:29.712Z,25.44
2022-07-26T09:19:16.829Z,25.49
2022-07-26T09:21:46.966Z,25.38
2022-07-26T09:24:15.213Z,26.08
2022-07-26T09:26:56.042Z,26.28
2022-07-26T09:29:23.512Z,26.46
2022-07-26T09:31:51.028Z,26.61
2022-07-26T09:34:25.732Z,27.56
2022-07-26T09:36:55.739Z,26.63
2022-07-26T09:39:33.682Z,26.26
2022-07-26T09:42:27.583Z,26.30
2022-07-26T09:44:56.299Z,25.97
2022-07-26T09:47:24.144Z,25.74
2022-07-26T09:50:11.740Z,26.20
2022-07-26T09:52:41.030Z,26.18
2022-07-26T09:55:10.209Z,26.00
2022-07-26T09:57:37.799Z,26.05
2022-07-26T10:00:07.787Z,26.55
2022-07-26T10:02:35.559Z,27.14
2022-07-26T10:05:03.103Z,27.48
2022-07-26T10:07:30.962Z,27.19
2022-07-26T10:10:04.536Z,26.54
2022-07-26T10:12:33.998Z,26.44
2022-07-26T10:15:02.375Z,26.59
2022-07-26T10:17:50.881Z,26.76
2022-07-26T10:20:40.772Z,27.47
2022-07-26T10:23:36.489Z,27.34
2022-07-26T10:26:07.387Z,27.66
2022-07-26T10:28:38.949Z,28.02
2022-07-26T10:31:31.174Z,28.05
2022-07-26T10:34:00.685Z,27.87
2022-07-26T10:36:31.255Z,27.93
2022-07-26T10:39:04.577Z,27.22
2022-07-26T10:41:35.508Z,27.20
2022-07-26T10:44:24.198Z,28.12
2022-07-26T10:47:15.699Z,27.88
2022-07-26T10:49:53.119Z,28.17
2022-07-26T10:52:22.759Z,28.62
2022-07-26T10:55:23.144Z,27.77
2022-07-26T10:57:51.881Z,28.54
2022-07-26T11:00:24.509Z,28.08
2022-07-26T11:02:58.330Z,28.39
2022-07-26T11:05:31.111Z,28.21
2022-07-26T11:08:08.131Z,27.68
2022-07-26T11:10:38.644Z,27.77
2022-07-26T11:13:16.871Z,27.89
2022-07-26T11:15:47.648Z,27.79
2022-07-26T11:18:23.491Z,27.48
2022-07-26T11:20:54.705Z,28.10
2022-07-26T11:23:27.875Z,28.70
2022-07-26T11:26:13.832Z,28.40
2022-07-26T11:28:51.163Z,28.51
2022-07-26T11:31:20.205Z,28.67
2022-07-26T11:33:50.871Z,28.09
2022-07-26T11:36:19.929Z,29.04
2022-07-26T11:38:49.301Z,28.68
2022-07-26T11:41:19.956Z,27.73
2022-07-26T11:44:05.250Z,27.62
2022-07-26T11:46:35.215Z,27.60
2022-07-26T11:49:04.514Z,27.97
2022-07-26T11:51:31.970Z,28.40
2022-07-26T11:54:02.324Z,28.17
2022-07-26T11:56:31.329Z,28.02
2022-07-26T11:58:59.771Z,28.40
2022-07-26T12:01:29.444Z,27.78
2022-07-26T12:03:57.634Z,27.83
2022-07-26T12:06:26.892Z,28.18
2022-07-26T12:08:56.418Z,28.55
2022-07-26T12:11:26.396Z,28.70
2022-07-26T12:13:59.292Z,28.75
2022-07-26T12:16:46.174Z,28.06
2022-07-26T12:19:29.771Z,28.33
2022-07-26T12:21:59.662Z,28.08
2022-07-26T12:24:55.741Z,27.84
2022-07-26T12:27:24.711Z,28.30
2022-07-26T12:29:55.040Z,28.51
2022-07-26T12:32:25.583Z,28.24
2022-07-26T12:34:58.491Z,28.25
2022-07-26T12:37:36.327Z,28.50
2022-07-26T12:40:10.504Z,28.60
2022-07-26T12:42:39.653Z,28.18
2022-07-26T12:45:10.077Z,28.26
2022-07-26T12:47:40.329Z,28.56
2022-07-26T12:50:09.506Z,28.07
2022-07-26T12:52:37.204Z,28.81
2022-07-26T12:55:07.618Z,28.93
2022-07-26T12:57:36.925Z,29.14
2022-07-26T13:00:06.391Z,28.84
2022-07-26T13:02:33.872Z,28.35
2022-07-26T13:05:04.392Z,28.71
2022-07-26T13:07:32.489Z,28.56
2022-07-26T13:10:30.363Z,28.94
2022-07-26T13:12:47.627Z,29.46
2022-07-26T13:15:15.189Z,29.69
2022-07-26T13:17:42.612Z,29.06
2022-07-26T13:20:11.833Z,28.69
2022-07-26T13:22:40.737Z,28.12
2022-07-26T13:25:09.066Z,28.05
2022-07-26T13:27:39.079Z,27.57
2022-07-26T13:30:09.686Z,27.46
2022-07-26T13:32:37.267Z,27.64
2022-07-26T13:35:04.958Z,27.58
2022-07-26T13:37:33.708Z,27.46
2022-07-26T13:40:01.192Z,27.37
2022-07-26T13:42:29.146Z,27.29
2022-07-26T13:44:56.685Z,27.45
2022-07-26T13:47:24.090Z,27.75
2022-07-26T13:49:51.516Z,27.62
2022-07-26T13:52:18.981Z,27.59
2022-07-26T13:54:47.730Z,27.84
2022-07-26T13:57:15.224Z,27.14
2022-07-26T13:59:42.718Z,27.24
2022-07-26T14:02:10.243Z,27.73
2022-07-26T14:04:37.729Z,27.75
2022-07-26T14:07:05.135Z,27.38
2022-07-26T14:09:32.591Z,27.92
2022-07-26T14:12:01.328Z,27.59
2022-07-26T14:14:28.735Z,27.76
2022-07-26T14:16:56.181Z,27.84
2022-07-26T14:19:23.664Z,27.65
2022-07-26T14:21:59.588Z,27.63
2022-07-26T14:24:28.157Z,27.42
2022-07-26T14:26:59.283Z,27.41
2022-07-26T14:29:29.005Z,27.54
2022-07-26T14:31:56.557Z,27.51
2022-07-26T14:34:24.104Z,27.57
2022-07-26T14:36:51.523Z,27.88
2022-07-26T14:39:20.479Z,28.03
2022-07-26T14:41:48.060Z,28.24
2022-07-26T14:44:15.533Z,27.97
2022-07-26T14:46:46.280Z,27.77
2022-07-26T14:49:13.801Z,27.39
2022-07-26T14:51:41.289Z,27.71
2022-07-26T14:54:09.765Z,27.81
2022-07-26T14:56:37.410Z,27.41
2022-07-26T14:59:04.841Z,26.86
2022-07-26T15:01:32.373Z,26.89
2022-07-26T15:04:01.257Z,27.24
2022-07-26T15:06:28.687Z,27.08
2022-07-26T15:08:56.271Z,27.07
2022-07-26T15:11:23.761Z,27.12
2022-07-26T15:13:51.195Z,27.11
2022-07-26T15:16:18.688Z,27.02
2022-07-26T15:18:46.147Z,26.78
2022-07-26T15:21:16.933Z,26.97
2022-07-26T15:23:44.492Z,26.73
2022-07-26T15:26:11.980Z,27.04
2022-07-26T15:28:39.445Z,27.07
2022-07-26T15:31:06.951Z,27.03
2022-07-26T15:33:35.296Z,26.98
2022-07-26T15:36:05.890Z,27.21
2022-07-26T15:38:34.952Z,26.96
2022-07-26T15:41:02.679Z,27.03
2022-07-26T15:43:49.001Z,26.79
2022-07-26T15:46:17.135Z,26.59
2022-07-26T15:48:45.552Z,26.48
2022-07-26T15:51:14.893Z,26.29
2022-07-26T15:53:46.418Z,26.17
2022-07-26T15:56:14.598Z,25.91
2022-07-26T15:58:42.029Z,25.77
2022-07-26T16:01:09.526Z,25.94
2022-07-26T16:03:36.995Z,25.61
2022-07-26T16:06:06.208Z,25.61
2022-07-26T16:08:33.861Z,25.72
2022-07-26T16:11:05.692Z,25.67
2022-07-26T16:13:33.095Z,25.41
2022-07-26T16:16:00.673Z,25.18
2022-07-26T16:18:28.245Z,25.20
2022-07-26T16:20:55.649Z,24.97
2022-07-26T16:23:23.080Z,24.95
2022-07-26T16:25:50.885Z,24.68
2022-07-26T16:28:19.770Z,24.76
2022-07-26T16:30:47.322Z,24.86
2022-07-26T16:33:14.765Z,24.87
2022-07-26T16:35:42.479Z,25.09
2022-07-26T16:38:09.913Z,25.03
2022-07-26T16:40:37.453Z,25.00
2022-07-26T16:43:08.847Z,24.96
2022-07-26T16:45:40.905Z,24.65
2022-07-26T16:48:08.400Z,24.69
2022-07-26T16:50:35.942Z,24.72
2022-07-26T16:53:03.519Z,24.54
2022-07-26T16:55:30.941Z,24.47
2022-07-26T16:57:58.473Z,24.46
2022-07-26T17:00:25.942Z,24.52
2022-07-26T17:02:55.419Z,24.69
2022-07-26T17:05:22.847Z,24.56
2022-07-26T17:07:50.271Z,24.80
2022-07-26T17:10:18.186Z,24.67
2022-07-26T17:12:45.605Z,24.90
2022-07-26T17:15:14.754Z,24.73
2022-07-26T17:17:46.904Z,24.59
2022-07-26T17:20:18.260Z,24.39
2022-07-26T17:22:45.766Z,24.40
2022-07-26T17:25:13.275Z,24.52
2022-07-26T17:27:40.754Z,24.36
2022-07-26T17:30:09.879Z,24.15
2022-07-26T17:32:37.993Z,24.14
2022-07-26T17:35:06.319Z,24.18
2022-07-26T17:37:35.828Z,24.07
2022-07-26T17:40:03.865Z,24.13
2022-07-26T17:42:31.277Z,23.92
2022-07-26T17:44:58.675Z,23.89
2022-07-26T17:47:29.371Z,23.96
2022-07-26T17:50:14.052Z,23.97
2022-07-26T17:52:48.245Z,24.03
2022-07-26T17:55:16.200Z,24.05
2022-07-26T17:57:43.683Z,23.89
2022-07-26T18:00:12.133Z,23.78
2022-07-26T18:02:39.776Z,23.91
2022-07-26T18:05:07.643Z,23.71
2022-07-26T18:07:35.100Z,23.81
2022-07-26T18:10:04.525Z,23.69
2022-07-26T18:12:31.952Z,23.55
2022-07-26T18:14:59.421Z,23.74
2022-07-26T18:17:26.826Z,23.66
2022-07-26T18:19:54.237Z,23.55
2022-07-26T18:22:23.119Z,23.67
2022-07-26T18:24:50.581Z,23.61
2022-07-26T18:27:19.552Z,23.43
2022-07-26T18:29:47.120Z,23.28
2022-07-26T18:32:15.164Z,23.36
2022-07-26T18:34:51.522Z,23.31
2022-07-26T18:37:20.341Z,23.25
2022-07-26T18:39:47.975Z,23.31
2022-07-26T18:42:15.591Z,23.29
2022-07-26T18:44:44.755Z,23.18
2022-07-26T18:47:12.167Z,22.96
2022-07-26T18:49:39.681Z,22.97
2022-07-26T18:52:08.819Z,22.95
2022-07-26T18:54:36.690Z,22.97
2022-07-26T18:57:04.262Z,22.78
2022-07-26T18:59:31.906Z,22.86
2022-07-26T19:02:00.786Z,22.87
2022-07-26T19:04:29.029Z,22.70
2022-07-26T19:06:56.722Z,22.87
2022-07-26T19:09:24.192Z,22.61
2022-07-26T19:11:51.631Z,22.59
2022-07-26T19:14:19.121Z,22.56
2022-07-26T19:16:46.610Z,22.45
2022-07-26T19:19:15.924Z,22.23
2022-07-26T19:21:46.416Z,22.36
2022-07-26T19:24:14.314Z,22.37
2022-07-26T19:26:41.889Z,22.42
2022-07-26T19:29:09.614Z,22.33
2022-07-26T19:31:40.121Z,22.29
2022-07-26T19:34:07.635Z,22.18
2022-07-26T19:36:36.680Z,22.18
2022-07-26T19:39:04.931Z,22.11
2022-07-26T19:41:32.490Z,22.20
2022-07-26T19:44:00.011Z,22.09
2022-07-26T19:46:27.478Z,21.97
2022-07-26T19:48:55.718Z,22.02
2022-07-26T19:51:23.533Z,21.85
2022-07-26T19:53:52.287Z,22.04
2022-07-26T19:56:19.726Z,21.96
2022-07-26T19:58:47.178Z,22.00
2022-07-26T20:01:14.686Z,21.97
2022-07-26T20:03:42.355Z,22.02
2022-07-26T20:06:09.938Z,21.91
2022-07-26T20:08:37.384Z,21.94
2022-07-26T20:11:06.239Z,21.77
2022-07-26T20:13:33.703Z,21.89
2022-07-26T20:16:02.879Z,21.76
2022-07-26T20:18:30.827Z,21.72
2022-07-26T20:20:58.515Z,21.81
2022-07-26T20:23:27.902Z,21.76
2022-07-26T20:25:55.606Z,21.73
2022-07-26T20:28:24.338Z,21.64
2022-07-26T20:30:53.282Z,21.77
2022-07-26T20:33:20.783Z,21.66
2022-07-26T20:35:52.976Z,21.66
2022-07-26T20:38:22.330Z,21.50
2022-07-26T20:40:49.874Z,21.48
2022-07-26T20:43:17.988Z,21.46
2022-07-26T20:45:46.815Z,21.57
2022-07-26T20:48:14.491Z,21.47
2022-07-26T20:50:41.950Z,21.40
2022-07-26T20:53:09.489Z,21.36
2022-07-26T20:55:37.001Z,21.26
2022-07-26T20:58:04.461Z,21.26
2022-07-26T21:00:31.886Z,21.25
2022-07-26T21:03:01.529Z,21.34
2022-07-26T21:05:32.506Z,21.49
2022-07-26T21:08:00.450Z,21.22
2022-07-26T21:10:28.952Z,21.30
2022-07-26T21:13:00.162Z,21.36
2022-07-26T21:15:27.741Z,21.41
2022-07-26T21:17:55.142Z,21.42
2022-07-26T21:20:23.984Z,21.52
2022-07-26T21:22:51.492Z,21.55
2022-07-26T21:25:18.931Z,21.30
2022-07-26T21:27:46.416Z,21.26
2022-07-26T21:30:14.351Z,21.39
2022-07-26T21:32:41.859Z,21.38
2022-07-26T21:35:09.371Z,21.36
2022-07-26T21:37:38.098Z,21.15
2022-07-26T21:40:06.645Z,21.25
2022-07-26T21:42:35.091Z,21.38
2022-07-26T21:45:02.636Z,21.29
2022-07-26T21:47:30.041Z,21.12
2022-07-26T21:49:57.495Z,21.22
2022-07-26T21:52:24.919Z,21.37
2022-07-26T21:54:53.697Z,21.35
2022-07-26T21:57:21.109Z,21.37
2022-07-26T21:59:48.562Z,21.40
2022-07-26T22:02:16.131Z,21.48
2022-07-26T22:04:47.639Z,21.26
2022-07-26T22:07:15.041Z,21.23
2022-07-26T22:09:42.589Z,21.08
2022-07-26T22:12:11.608Z,21.08
2022-07-26T22:14:39.071Z,21.26
2022-07-26T22:17:06.481Z,21.22
2022-07-26T22:19:33.918Z,20.98
2022-07-26T22:22:02.367Z,21.11
2022-07-26T22:24:29.880Z,21.08
2022-07-26T22:26:57.291Z,21.14
2022-07-26T22:29:26.069Z,21.00
2022-07-26T22:32:03.205Z,21.01
2022-07-26T22:34:30.666Z,20.95
2022-07-26T22:36:58.461Z,21.10
2022-07-26T22:39:25.895Z,20.92
2022-07-26T22:42:14.176Z,20.73
2022-07-26T22:44:42.021Z,20.97
2022-07-26T22:47:09.447Z,20.91
2022-07-26T22:49:36.933Z,20.83
2022-07-26T22:52:04.569Z,20.84
2022-07-26T22:54:31.978Z,20.88
2022-07-26T22:56:59.415Z,21.02
2022-07-26T22:59:27.042Z,20.77
2022-07-26T23:01:56.616Z,20.87
2022-07-26T23:04:24.105Z,20.74
2022-07-26T23:06:52.201Z,20.76
2022-07-26T23:09:22.294Z,20.63
2022-07-26T23:11:49.723Z,20.63
2022-07-26T23:14:17.171Z,20.55
2022-07-26T23:16:44.617Z,20.37
2022-07-26T23:19:13.962Z,20.79
2022-07-26T23:21:41.800Z,20.69
2022-07-26T23:24:09.656Z,20.75
2022-07-26T23:26:37.261Z,20.53
2022-07-26T23:29:04.980Z,20.62
2022-07-26T23:31:32.594Z,20.54
2022-07-26T23:34:00.076Z,20.53
2022-07-26T23:36:29.562Z,20.85
2022-07-26T23:38:58.257Z,20.79
2022-07-26T23:41:26.142Z,20.82
2022-07-26T23:43:54.110Z,20.61
2022-07-26T23:46:22.040Z,20.45
2022-07-26T23:48:50.184Z,20.59
2022-07-26T23:51:19.277Z,20.37
2022-07-26T23:53:48.360Z,20.54
2022-07-26T23:56:16.369Z,20.47
2022-07-26T23:58:44.436Z,20.50
